Time;durP1;ratioP1;P1;durP2;ratioP2;P2;SDS_P1;SDS_P2;PMS_P1;PMS_P2;Temp;Humidity;BMP_temperature;BMP_pressure;BME280_temperature;BME280_humidity;BME280_pressure;Samples;Min_cycle;Max_cycle;Signal;HPM_P1;HPM_P2
2023/03/08 00:00:05;;;;;;;;;4.00;3.00;;;;;20.67;36.49;99573.69;5035909;28;45269;-73
2023/03/08 00:02:30;;;;;;;;;6.50;4.00;;;;;20.61;36.75;99553.34;5034913;28;47126;-73
2023/03/08 00:04:56;;;;;;;;;4.25;4.25;;;;;20.67;36.82;99546.44;5033586;28;45374;-73
2023/03/08 00:07:22;;;;;;;;;4.00;3.00;;;;;20.66;36.88;99548.25;5030582;28;45498;-73
2023/03/08 00:09:47;;;;;;;;;2.50;2.50;;;;;20.61;37.03;99534.81;5035744;28;45331;-73
2023/03/08 00:12:13;;;;;;;;;2.50;2.50;;;;;20.66;36.62;99550.09;5035506;28;45500;-73
2023/03/08 00:14:38;;;;;;;;;4.75;3.00;;;;;20.65;36.59;99533.44;5028405;28;45346;-73
2023/03/08 00:17:04;;;;;;;;;5.75;4.00;;;;;20.64;37.03;99523.84;5028908;28;45345;-73
2023/03/08 00:19:29;;;;;;;;;4.00;3.00;;;;;20.65;36.56;99519.41;5022287;28;45359;-73
2023/03/08 00:21:54;;;;;;;;;4.50;3.25;;;;;20.62;36.57;99510.03;5035207;28;47397;-73
2023/03/08 00:24:20;;;;;;;;;4.75;3.75;;;;;20.60;36.79;99501.50;5035470;28;45379;-73
2023/03/08 00:26:45;;;;;;;;;4.25;4.25;;;;;20.59;36.66;99497.22;5035680;28;45331;-72
2023/03/08 00:29:10;;;;;;;;;5.00;3.50;;;;;20.63;36.83;99493.19;5035254;28;45388;-73
2023/03/08 00:31:36;;;;;;;;;4.00;4.00;;;;;20.61;36.78;99490.72;5035079;28;45208;-72
2023/03/08 00:34:01;;;;;;;;;4.00;4.00;;;;;20.62;36.77;99486.25;5013526;28;45495;-73
2023/03/08 00:36:27;;;;;;;;;2.75;2.75;;;;;20.55;36.82;99472.25;5028201;28;45312;-73
2023/03/08 00:38:52;;;;;;;;;4.25;3.25;;;;;20.60;36.93;99477.72;5031997;28;45382;-73
2023/03/08 00:41:19;;;;;;;;;4.50;4.50;;;;;20.57;36.87;99475.47;5028004;28;46601;-73
2023/03/08 00:43:45;;;;;;;;;3.50;3.50;;;;;20.59;36.50;99462.88;5034829;28;45367;-73
2023/03/08 00:46:11;;;;;;;;;2.00;2.00;;;;;20.58;36.48;99453.34;5038745;28;45233;-73
2023/03/08 00:48:36;;;;;;;;;3.00;3.00;;;;;20.47;36.55;99444.19;5035292;28;45348;-73
2023/03/08 00:51:02;;;;;;;;;5.75;3.75;;;;;20.58;36.51;99448.06;5034198;28;46021;-73
2023/03/08 00:53:28;;;;;;;;;3.25;3.25;;;;;20.50;36.46;99426.13;5042668;28;45267;-73
2023/03/08 00:55:55;;;;;;;;;3.00;3.00;;;;;20.59;36.71;99436.44;5034879;28;45360;-73
2023/03/08 00:58:22;;;;;;;;;5.25;3.00;;;;;20.59;36.31;99417.94;5034947;28;45422;-73
2023/03/08 01:00:48;;;;;;;;;3.75;3.75;;;;;20.51;36.42;99400.47;5034199;28;46837;-73
2023/03/08 01:03:14;;;;;;;;;3.25;3.00;;;;;20.56;36.20;99410.44;5034441;28;45346;-73
2023/03/08 01:05:44;;;;;;;;;6.25;4.00;;;;;20.54;36.21;99391.34;5028303;28;45453;-73
2023/03/08 01:08:10;;;;;;;;;3.25;3.25;;;;;20.60;36.24;99386.06;5034799;28;45403;-73
2023/03/08 01:10:36;;;;;;;;;5.00;3.50;;;;;20.59;36.53;99379.13;5004754;28;45534;-73
2023/03/08 01:13:03;;;;;;;;;4.00;4.00;;;;;20.60;36.56;99382.59;5035039;28;45272;-73
2023/03/08 01:15:29;;;;;;;;;1.50;1.50;;;;;20.60;36.51;99380.78;5025723;28;45395;-73
2023/03/08 01:17:54;;;;;;;;;3.00;3.00;;;;;20.57;36.23;99372.44;5034942;28;45551;-73
2023/03/08 01:20:20;;;;;;;;;2.75;2.50;;;;;20.59;36.34;99371.22;5034507;28;45923;-73
2023/03/08 01:22:45;;;;;;;;;4.75;4.50;;;;;20.58;36.47;99366.13;5016931;28;45502;-73
2023/03/08 01:25:10;;;;;;;;;4.00;4.00;;;;;20.57;36.33;99352.09;5034627;28;45434;-73
2023/03/08 01:27:36;;;;;;;;;2.00;2.00;;;;;20.57;36.27;99346.81;5034944;28;45292;-73
2023/03/08 01:30:01;;;;;;;;;3.00;3.00;;;;;20.51;36.32;99331.78;5034173;28;46944;-73
2023/03/08 01:32:26;;;;;;;;;3.50;3.50;;;;;20.57;36.65;99338.09;5034592;28;46312;-73
2023/03/08 01:34:52;;;;;;;;;3.00;3.00;;;;;20.57;36.34;99323.03;5034481;28;45390;-73
2023/03/08 01:37:17;;;;;;;;;3.00;3.00;;;;;20.57;36.46;99320.41;5034653;28;45330;-73
2023/03/08 01:39:42;;;;;;;;;4.25;4.25;;;;;20.55;36.52;99311.88;5012627;28;46025;-73
2023/03/08 01:42:08;;;;;;;;;0.00;0.00;;;;;20.55;36.30;99305.78;5034049;28;45359;-73
2023/03/08 01:44:56;;;;;;;;;3.00;3.00;;;;;20.57;36.48;99303.72;5034218;28;45461;-73
2023/03/08 01:47:30;;;;;;;;;2.50;2.50;;;;;20.55;36.36;99280.16;5035059;28;45175;-73
2023/03/08 01:50:09;;;;;;;;;4.25;4.25;;;;;20.48;36.31;99255.59;5029947;28;45351;-73
2023/03/08 01:52:45;;;;;;;;;4.50;3.00;;;;;20.55;36.49;99259.03;5026796;28;45694;-73
2023/03/08 01:55:12;;;;;;;;;1.25;1.25;;;;;20.55;36.42;99255.56;5034247;28;45375;-73
2023/03/08 01:57:40;;;;;;;;;3.75;3.75;;;;;20.54;36.57;99256.59;5033912;28;45386;-72
2023/03/08 02:00:25;;;;;;;;;2.00;2.00;;;;;20.56;36.26;99257.19;5034192;28;45232;-72
2023/03/08 02:02:51;;;;;;;;;3.00;3.00;;;;;20.55;36.12;99242.38;5035720;28;45521;-72
2023/03/08 02:05:17;;;;;;;;;2.75;2.75;;;;;20.54;36.26;99225.69;5037760;28;45367;-72
2023/03/08 02:07:42;;;;;;;;;3.50;3.50;;;;;20.53;36.23;99234.66;5019753;28;45324;-73
2023/03/08 02:10:10;;;;;;;;;3.00;3.00;;;;;20.54;36.46;99222.22;5037066;28;45503;-73
2023/03/08 02:12:36;;;;;;;;;2.00;2.00;;;;;20.40;36.28;99190.59;5023961;28;45446;-73
2023/03/08 02:15:05;;;;;;;;;2.00;2.00;;;;;20.51;36.53;99195.22;5027600;28;45425;-73
2023/03/08 02:17:34;;;;;;;;;4.00;4.00;;;;;20.52;36.38;99174.91;5034881;28;45421;-72
2023/03/08 02:20:05;;;;;;;;;3.00;3.00;;;;;20.52;36.57;99169.63;5026949;28;47459;-73
2023/03/08 02:22:30;;;;;;;;;4.25;3.00;;;;;20.44;36.31;99154.81;5038008;28;45458;-72
2023/03/08 02:24:55;;;;;;;;;3.00;3.00;;;;;20.50;36.62;99156.63;5037476;28;45225;-73
2023/03/08 02:27:24;;;;;;;;;3.50;3.50;;;;;20.50;36.29;99142.59;5037052;28;45235;-73
2023/03/08 02:29:50;;;;;;;;;4.75;3.00;;;;;20.50;36.31;99124.91;5037266;28;45965;-73
2023/03/08 02:32:16;;;;;;;;;4.00;2.00;;;;;20.50;36.30;99103.78;5036646;28;45556;-73
2023/03/08 02:34:42;;;;;;;;;1.75;1.75;;;;;20.46;36.53;99093.84;5048448;28;45438;-72
2023/03/08 02:37:07;;;;;;;;;2.00;2.00;;;;;20.51;36.17;99083.44;5037744;28;45374;-73
2023/03/08 02:39:32;;;;;;;;;2.75;2.75;;;;;20.51;36.43;99078.16;5038544;28;45553;-73
2023/03/08 02:41:58;;;;;;;;;3.00;3.00;;;;;20.54;36.27;99069.81;5036121;28;45513;-72
2023/03/08 02:44:23;;;;;;;;;2.50;2.50;;;;;20.55;36.18;99070.63;5037467;28;45327;-72
2023/03/08 02:46:49;;;;;;;;;3.00;3.00;;;;;20.55;36.22;99062.69;5036841;28;45390;-73
2023/03/08 02:49:15;;;;;;;;;3.25;3.25;;;;;20.55;36.15;99068.78;5036873;28;46167;-73
2023/03/08 02:51:40;;;;;;;;;4.00;3.00;;;;;20.56;36.05;99080.97;5036411;28;45402;-73
2023/03/08 02:54:05;;;;;;;;;2.25;2.25;;;;;20.56;36.08;99088.06;5036932;28;45479;-73
2023/03/08 02:56:31;;;;;;;;;4.25;3.00;;;;;20.56;36.27;99094.19;5036328;28;45380;-73
2023/03/08 02:58:56;;;;;;;;;2.75;2.00;;;;;20.55;36.25;99100.50;5042018;28;47187;-72
2023/03/08 03:01:22;;;;;;;;;4.00;4.00;;;;;20.54;36.17;99093.59;5042492;28;45374;-73
2023/03/08 03:03:47;;;;;;;;;3.00;3.00;;;;;20.55;36.38;99089.94;5036969;28;45277;-73
2023/03/08 03:06:18;;;;;;;;;2.25;2.25;;;;;20.55;36.46;99081.19;5033204;28;45474;-73
2023/03/08 03:08:45;;;;;;;;;3.50;3.00;;;;;20.54;36.02;99077.72;5036610;28;46152;-73
2023/03/08 03:11:21;;;;;;;;;3.00;3.00;;;;;20.54;36.19;99061.06;5036074;28;45250;-73
2023/03/08 03:13:53;;;;;;;;;2.00;2.00;;;;;20.51;36.24;99055.19;5035954;28;45382;-73
2023/03/08 03:16:18;;;;;;;;;3.00;3.00;;;;;20.53;36.14;99040.97;5036811;28;45318;-72
2023/03/08 03:18:43;;;;;;;;;2.25;2.25;;;;;20.51;36.14;99039.34;5036312;28;45505;-73
2023/03/08 03:21:11;;;;;;;;;3.00;3.00;;;;;20.52;36.23;99024.31;5037555;28;45447;-73
2023/03/08 03:23:37;;;;;;;;;2.75;2.75;;;;;20.50;36.37;99015.78;5041780;28;45267;-73
2023/03/08 03:26:07;;;;;;;;;3.75;3.75;;;;;20.50;36.08;99005.22;5036019;28;45384;-72
2023/03/08 03:28:33;;;;;;;;;3.25;3.00;;;;;20.50;36.48;98998.13;5036060;28;45550;-72
2023/03/08 03:30:59;;;;;;;;;2.00;2.00;;;;;20.46;36.03;98994.25;5036373;28;45390;-73
2023/03/08 03:33:25;;;;;;;;;3.25;3.25;;;;;20.51;36.63;98998.91;5035756;28;45399;-73
2023/03/08 03:35:50;;;;;;;;;2.75;2.00;;;;;20.50;36.39;98989.38;5036130;28;45474;-72
2023/03/08 03:38:16;;;;;;;;;2.25;2.25;;;;;20.45;36.20;98974.16;5035648;28;46009;-72
2023/03/08 03:40:41;;;;;;;;;4.00;3.00;;;;;20.48;36.36;98960.50;5014703;28;45427;-72
2023/03/08 03:43:07;;;;;;;;;2.75;2.75;;;;;20.47;36.29;98958.09;5037670;28;45341;-72
2023/03/08 03:45:32;;;;;;;;;2.00;2.00;;;;;20.47;36.02;98948.34;5039723;28;45506;-72
2023/03/08 03:47:57;;;;;;;;;2.25;1.50;;;;;20.47;36.52;98937.78;5040957;28;49337;-72
2023/03/08 03:50:22;;;;;;;;;2.50;2.50;;;;;20.47;36.26;98934.31;5036198;28;45285;-72
2023/03/08 03:52:48;;;;;;;;;3.00;3.00;;;;;20.46;36.42;98909.72;5037228;28;45365;-73
2023/03/08 03:55:13;;;;;;;;;2.00;2.00;;;;;20.47;36.14;98902.63;5035561;28;45429;-72
2023/03/08 03:57:39;;;;;;;;;1.75;1.75;;;;;20.34;36.25;98883.22;5035455;28;45553;-73
2023/03/08 04:00:06;;;;;;;;;3.00;3.00;;;;;20.45;36.55;98913.41;5035720;28;45296;-73
2023/03/08 04:02:31;;;;;;;;;2.00;2.00;;;;;20.45;36.30;98910.78;5037295;28;45478;-72
2023/03/08 04:04:56;;;;;;;;;2.00;2.00;;;;;20.45;36.51;98897.56;5035799;28;45422;-72
2023/03/08 04:07:22;;;;;;;;;3.00;3.00;;;;;20.47;36.73;98897.34;5035722;28;47217;-73
2023/03/08 04:09:47;;;;;;;;;3.25;2.25;;;;;20.47;36.34;98894.69;5036431;28;45549;-72
2023/03/08 04:12:13;;;;;;;;;2.00;2.00;;;;;20.43;36.00;98875.03;5028424;28;45428;-73
2023/03/08 04:14:39;;;;;;;;;1.50;1.50;;;;;20.48;36.24;98865.41;5041506;28;45264;-73
2023/03/08 04:17:06;;;;;;;;;4.75;4.75;;;;;20.49;36.09;98861.75;5048301;28;46302;-73
2023/03/08 04:19:31;;;;;;;;;2.00;2.00;;;;;20.50;36.15;98873.94;5035560;28;45347;-73
2023/03/08 04:21:56;;;;;;;;;2.00;2.00;;;;;20.47;36.24;98847.97;5034634;28;45331;-72
2023/03/08 04:24:22;;;;;;;;;2.50;2.50;;;;;20.50;36.38;98844.06;5039890;28;45498;-72
2023/03/08 04:26:47;;;;;;;;;2.75;2.75;;;;;20.49;35.89;98840.63;5041414;28;45545;-72
2023/03/08 04:29:12;;;;;;;;;3.50;2.50;;;;;20.49;36.04;98835.34;5014202;28;46148;-72
2023/03/08 04:31:38;;;;;;;;;1.25;1.00;;;;;20.53;36.05;98829.63;5037464;28;46442;-72
2023/03/08 04:34:03;;;;;;;;;2.00;2.00;;;;;20.53;36.19;98822.50;5035552;28;45489;-73
2023/03/08 04:36:29;;;;;;;;;2.00;2.00;;;;;20.53;36.19;98821.69;5036319;28;46223;-73
2023/03/08 04:38:55;;;;;;;;;3.00;2.00;;;;;20.53;36.03;98806.66;5035026;28;45417;-72
2023/03/08 04:41:20;;;;;;;;;2.00;2.00;;;;;20.47;36.21;98795.13;5035046;28;45512;-73
2023/03/08 04:43:51;;;;;;;;;1.50;1.50;;;;;20.52;36.13;98789.19;5034584;28;45506;-72
2023/03/08 04:46:20;;;;;;;;;3.25;3.25;;;;;20.51;35.99;98793.66;5034985;28;46097;-72
2023/03/08 04:48:46;;;;;;;;;4.00;2.00;;;;;20.47;36.23;98775.81;5035078;28;45386;-73
2023/03/08 04:51:13;;;;;;;;;3.00;1.75;;;;;20.51;36.05;98787.56;5034636;28;45398;-72
2023/03/08 04:53:40;;;;;;;;;3.25;2.25;;;;;20.51;36.16;98779.63;5035566;28;45318;-73
2023/03/08 04:56:07;;;;;;;;;2.25;2.25;;;;;20.50;36.20;98759.53;5034574;28;46396;-73
2023/03/08 04:58:34;;;;;;;;;2.00;2.00;;;;;20.50;36.59;98759.53;5037631;28;45672;-72
2023/03/08 05:01:06;;;;;;;;;2.00;2.00;;;;;20.50;36.37;98763.00;5034488;28;45281;-72
2023/03/08 05:03:32;;;;;;;;;1.50;1.50;;;;;20.50;36.40;98762.19;5035475;28;45512;-72
2023/03/08 05:05:57;;;;;;;;;2.50;1.50;;;;;20.49;36.09;98757.91;5034185;28;45303;-72
2023/03/08 05:08:22;;;;;;;;;2.25;2.00;;;;;20.47;36.10;98747.56;5034857;28;45518;-72
2023/03/08 05:10:58;;;;;;;;;2.00;2.00;;;;;20.48;36.44;98751.03;5034268;28;45921;-72
2023/03/08 05:13:29;;;;;;;;;1.00;1.00;;;;;20.47;36.26;98742.28;5034965;28;45539;-72
2023/03/08 05:15:55;;;;;;;;;2.50;2.50;;;;;20.47;36.57;98734.38;5022497;28;46219;-72
2023/03/08 05:18:20;;;;;;;;;2.00;2.00;;;;;20.46;36.22;98729.28;5034792;28;45899;-73
2023/03/08 05:20:57;;;;;;;;;3.00;3.00;;;;;20.45;36.16;98717.94;5033971;28;46410;-73
2023/03/08 05:23:24;;;;;;;;;3.75;3.00;;;;;20.45;36.57;98727.69;5034610;28;45477;-72
2023/03/08 05:25:57;;;;;;;;;4.00;4.00;;;;;20.45;36.16;98722.41;5034212;28;47227;-72
2023/03/08 05:28:25;;;;;;;;;0.00;0.00;;;;;20.40;36.05;98723.88;5034526;28;45324;-72
2023/03/08 05:31:15;;;;;;;;;3.00;3.00;;;;;20.45;36.34;98741.72;5027668;28;45386;-72
2023/03/08 05:33:42;;;;;;;;;4.75;4.75;;;;;20.44;36.44;98737.44;5034503;28;45405;-73
2023/03/08 05:36:10;;;;;;;;;8.75;6.75;;;;;20.43;36.18;98729.75;5033926;28;47253;-73
2023/03/08 05:38:35;;;;;;;;;4.00;4.00;;;;;20.45;36.04;98727.69;5036581;28;45463;-72
2023/03/08 05:41:02;;;;;;;;;6.25;5.75;;;;;20.44;36.47;98726.06;5027068;28;45485;-72
2023/03/08 05:43:27;;;;;;;;;6.00;4.75;;;;;20.44;36.16;98723.44;5035372;28;45643;-73
2023/03/08 05:46:01;;;;;;;;;8.75;7.25;;;;;20.46;36.06;98713.44;5037538;28;46098;-73
2023/03/08 05:48:28;;;;;;;;;8.75;8.25;;;;;20.44;36.39;98707.56;5037769;28;45432;-72
2023/03/08 05:50:53;;;;;;;;;7.00;6.50;;;;;20.49;36.32;98711.19;5037810;28;45304;-73
2023/03/08 05:53:20;;;;;;;;;11.00;6.00;;;;;20.51;36.12;98713.59;5037197;28;45387;-72
2023/03/08 05:55:46;;;;;;;;;9.25;8.75;;;;;20.50;36.36;98712.00;5037638;28;47212;-72
2023/03/08 05:58:11;;;;;;;;;7.25;5.75;;;;;20.48;36.58;98709.56;5037439;28;45302;-72
2023/03/08 06:00:37;;;;;;;;;8.50;7.50;;;;;20.53;36.29;98710.75;5037604;28;45209;-72
2023/03/08 06:03:02;;;;;;;;;10.25;9.00;;;;;20.52;36.18;98715.22;5016521;28;45241;-72
2023/03/08 06:05:28;;;;;;;;;10.00;8.50;;;;;20.54;36.35;98714.97;5029367;28;46047;-72
2023/03/08 06:07:54;;;;;;;;;8.25;8.00;;;;;20.55;36.27;98711.31;5037710;28;45462;-73
2023/03/08 06:10:19;;;;;;;;;10.00;9.75;;;;;20.55;36.21;98721.88;5039841;28;45545;-73
2023/03/08 06:12:45;;;;;;;;;10.00;9.00;;;;;20.54;36.22;98707.88;5039228;28;45362;-73
2023/03/08 06:15:11;;;;;;;;;9.25;8.50;;;;;20.55;36.20;98714.78;5028062;28;46228;-73
2023/03/08 06:17:37;;;;;;;;;12.25;9.50;;;;;20.54;36.42;98718.44;5037410;28;45377;-73
2023/03/08 06:20:03;;;;;;;;;12.25;9.50;;;;;20.56;36.06;98721.66;5037184;28;45462;-73
2023/03/08 06:22:28;;;;;;;;;9.75;8.50;;;;;20.53;36.37;98719.47;5036927;28;45399;-73
2023/03/08 06:24:53;;;;;;;;;9.25;9.00;;;;;20.52;36.34;98699.34;5037088;28;46068;-73
2023/03/08 06:27:19;;;;;;;;;9.50;9.25;;;;;20.48;36.26;98698.19;5038416;28;46436;-73
2023/03/08 06:29:45;;;;;;;;;12.50;8.50;;;;;20.58;36.10;98708.22;5046626;28;45431;-73
2023/03/08 06:32:10;;;;;;;;;10.75;10.00;;;;;20.57;36.17;98711.91;5036441;28;45483;-73
2023/03/08 06:34:35;;;;;;;;;9.00;9.00;;;;;20.50;36.14;98698.78;5040517;28;46192;-74
2023/03/08 06:37:01;;;;;;;;;12.00;9.75;;;;;20.58;36.11;98692.38;5036561;28;45292;-72
2023/03/08 06:39:29;;;;;;;;;14.00;11.00;;;;;20.63;36.45;98705.72;5046316;28;45426;-75
2023/03/08 06:41:55;;;;;;;;;10.00;8.75;;;;;20.63;36.33;98709.16;5033950;28;45336;-75
2023/03/08 06:44:20;;;;;;;;;11.00;9.00;;;;;20.66;36.54;98726.41;5014546;28;47255;-75
2023/03/08 06:46:45;;;;;;;;;12.25;10.50;;;;;20.63;36.83;98724.22;5036095;28;45403;-77
2023/03/08 06:49:11;;;;;;;;;13.25;9.75;;;;;20.63;36.87;98711.00;5033038;28;45366;-75
2023/03/08 06:51:36;;;;;;;;;15.00;10.00;;;;;20.68;36.33;98715.63;5044070;28;45530;-75
2023/03/08 06:54:02;;;;;;;;;12.00;10.50;;;;;20.70;36.75;98714.38;5004507;28;47028;-72
2023/03/08 06:56:27;;;;;;;;;10.50;8.75;;;;;20.72;36.60;98732.63;5036520;28;45441;-73
2023/03/08 06:58:53;;;;;;;;;10.50;9.50;;;;;20.73;37.11;98723.69;5036720;28;45702;-73
2023/03/08 07:01:18;;;;;;;;;13.25;10.75;;;;;20.74;36.62;98734.03;5035645;28;45457;-74
2023/03/08 07:03:44;;;;;;;;;12.75;10.25;;;;;20.76;36.73;98725.09;5034636;28;46257;-74
2023/03/08 07:06:10;;;;;;;;;15.00;10.00;;;;;20.76;36.99;98743.59;5034762;28;45469;-73
2023/03/08 07:08:38;;;;;;;;;12.00;10.50;;;;;20.77;37.16;98739.88;5032633;28;45430;-73
2023/03/08 07:11:03;;;;;;;;;13.75;12.50;;;;;20.77;36.55;98748.63;5035733;28;45882;-74
2023/03/08 07:13:29;;;;;;;;;14.75;12.00;;;;;20.77;36.56;98751.28;5028656;28;46233;-72
2023/03/08 07:15:55;;;;;;;;;13.50;10.25;;;;;20.78;36.68;98752.09;5024605;28;45450;-70
2023/03/08 07:18:20;;;;;;;;;15.25;11.25;;;;;20.78;36.64;98750.25;5035547;28;45841;-72
2023/03/08 07:20:56;;;;;;;;;14.00;12.50;;;;;20.74;36.57;98744.59;5022257;28;45528;-72
2023/03/08 07:23:22;;;;;;;;;11.00;9.25;;;;;20.73;36.78;98742.19;5041898;28;45382;-72
2023/03/08 07:25:47;;;;;;;;;12.75;9.50;;;;;20.78;37.02;98760.84;5035879;28;45470;-72
2023/03/08 07:28:13;;;;;;;;;10.75;9.75;;;;;20.79;37.09;98767.72;5040737;28;45397;-72
2023/03/08 07:30:38;;;;;;;;;13.25;8.50;;;;;20.78;36.92;98766.13;5039614;28;45319;-72
2023/03/08 07:33:03;;;;;;;;;13.25;8.50;;;;;20.78;36.95;98760.84;5034870;28;46277;-72
2023/03/08 07:35:29;;;;;;;;;11.00;9.25;;;;;20.78;36.98;98774.03;5035897;28;45723;-72
2023/03/08 07:37:54;;;;;;;;;12.00;10.25;;;;;20.78;36.90;98775.88;5035890;28;45360;-72
2023/03/08 07:40:20;;;;;;;;;8.50;7.25;;;;;20.78;36.67;98770.59;5035339;28;45352;-72
2023/03/08 07:42:45;;;;;;;;;10.75;9.25;;;;;20.74;37.20;98764.94;5037000;28;46162;-72
2023/03/08 07:45:12;;;;;;;;;11.00;8.75;;;;;20.77;37.00;98761.84;5035174;28;45427;-72
2023/03/08 07:47:37;;;;;;;;;13.50;13.25;;;;;20.76;37.01;98776.09;5031181;28;45349;-72
2023/03/08 07:50:03;;;;;;;;;12.25;9.75;;;;;20.76;36.93;98775.28;5038106;28;45519;-71
2023/03/08 07:52:29;;;;;;;;;13.50;10.50;;;;;20.77;37.17;98774.25;5034327;28;46138;-71
2023/03/08 07:54:56;;;;;;;;;12.75;11.75;;;;;20.72;36.93;98774.91;5035124;28;45754;-70
2023/03/08 07:57:22;;;;;;;;;14.00;11.50;;;;;20.76;37.26;98778.75;5035551;28;45385;-70
2023/03/08 07:59:47;;;;;;;;;13.25;9.75;;;;;20.69;37.29;98767.44;5034558;28;45349;-71
2023/03/08 08:02:13;;;;;;;;;16.25;13.25;;;;;20.73;37.05;98781.84;5034044;28;45412;-70
2023/03/08 08:04:39;;;;;;;;;11.00;9.25;;;;;20.75;37.03;98790.34;5035234;28;45458;-70
2023/03/08 08:07:05;;;;;;;;;10.75;9.25;;;;;20.75;37.20;98792.97;5031230;28;45374;-70
2023/03/08 08:09:31;;;;;;;;;13.50;10.50;;;;;20.74;36.87;98792.16;5027378;28;45554;-71
2023/03/08 08:11:56;;;;;;;;;11.75;10.00;;;;;20.74;36.96;98800.09;5035605;28;45537;-71
2023/03/08 08:14:22;;;;;;;;;9.75;8.50;;;;;20.73;37.04;98801.16;5030430;28;45374;-72
2023/03/08 08:16:47;;;;;;;;;11.00;9.25;;;;;20.73;37.19;98795.03;5026386;28;45313;-71
2023/03/08 08:19:13;;;;;;;;;9.25;9.25;;;;;20.72;36.95;98799.50;5035274;28;45254;-72
2023/03/08 08:21:39;;;;;;;;;11.75;10.00;;;;;20.72;37.08;98801.34;5035509;28;46067;-72
2023/03/08 08:24:05;;;;;;;;;7.75;6.25;;;;;20.73;37.30;98802.97;5035082;28;45470;-72
2023/03/08 08:26:30;;;;;;;;;16.00;9.25;;;;;20.73;37.24;98795.03;5035638;28;45370;-72
2023/03/08 08:28:56;;;;;;;;;10.25;7.50;;;;;20.73;37.08;98792.41;5034828;28;45351;-72
2023/03/08 08:31:24;;;;;;;;;12.00;9.75;;;;;20.72;37.21;98796.88;5035023;28;46824;-71
2023/03/08 08:33:49;;;;;;;;;11.25;8.25;;;;;20.72;36.65;98810.09;5034511;28;45365;-72
2023/03/08 08:36:17;;;;;;;;;9.50;8.50;;;;;20.72;37.37;98810.09;5035129;28;45337;-71
2023/03/08 08:38:44;;;;;;;;;8.75;8.75;;;;;20.65;37.11;98812.00;5034725;28;45358;-71
2023/03/08 08:41:11;;;;;;;;;11.75;9.00;;;;;20.73;37.42;98826.75;5034153;28;46946;-73
2023/03/08 08:43:36;;;;;;;;;9.25;8.50;;;;;20.74;37.28;98823.88;5034144;28;45455;-72
2023/03/08 08:46:03;;;;;;;;;8.25;8.00;;;;;20.76;37.43;98830.78;5034894;28;45470;-72
2023/03/08 08:48:31;;;;;;;;;8.00;7.75;;;;;20.76;37.22;98825.50;5037357;28;45445;-72
2023/03/08 08:50:57;;;;;;;;;11.00;10.00;;;;;20.69;37.03;98823.72;5042942;28;46042;-72
2023/03/08 08:53:22;;;;;;;;;7.00;6.25;;;;;20.77;37.49;98840.31;5034822;28;45392;-73
2023/03/08 08:55:48;;;;;;;;;8.00;7.75;;;;;20.77;37.08;98843.78;5034861;28;45249;-73
2023/03/08 08:58:14;;;;;;;;;10.00;9.50;;;;;20.71;37.18;98840.16;5035118;28;45353;-73
2023/03/08 09:00:39;;;;;;;;;12.50;6.00;;;;;20.78;37.17;98844.59;5042844;28;46299;-72
2023/03/08 09:03:05;;;;;;;;;9.25;7.00;;;;;20.74;37.17;98834.44;5034594;28;45327;-73
2023/03/08 09:05:32;;;;;;;;;11.25;8.75;;;;;20.78;37.21;98844.59;5035020;28;45362;-73
2023/03/08 09:08:00;;;;;;;;;10.00;7.50;;;;;20.78;37.56;98849.88;5034217;28;45399;-72
2023/03/08 09:10:31;;;;;;;;;12.25;7.50;;;;;20.78;37.39;98853.34;5034485;28;45411;-73
2023/03/08 09:12:57;;;;;;;;;11.25;10.25;;;;;20.78;37.29;98848.03;5036306;28;45375;-73
2023/03/08 09:15:23;;;;;;;;;8.50;7.00;;;;;20.77;37.37;98849.06;5031155;28;45396;-73
2023/03/08 09:17:49;;;;;;;;;10.00;10.00;;;;;20.69;37.28;98836.13;5037933;28;45455;-73
2023/03/08 09:20:15;;;;;;;;;10.75;7.25;;;;;20.78;37.36;98855.97;5040407;28;46392;-73
2023/03/08 09:22:40;;;;;;;;;13.50;8.50;;;;;20.78;37.22;98853.34;5037815;28;45318;-73
2023/03/08 09:25:07;;;;;;;;;6.00;6.00;;;;;20.79;37.22;98856.78;5037923;28;45525;-73
2023/03/08 09:27:33;;;;;;;;;8.75;6.25;;;;;20.72;37.64;98846.28;5038005;28;45548;-73
2023/03/08 09:29:59;;;;;;;;;11.00;9.50;;;;;20.79;37.69;98868.16;5037861;28;45306;-73
2023/03/08 09:32:25;;;;;;;;;8.75;8.25;;;;;20.76;38.01;98850.09;5037668;28;45235;-73
2023/03/08 09:34:51;;;;;;;;;8.75;7.00;;;;;20.78;37.71;98866.53;5037844;28;45381;-73
2023/03/08 09:37:16;;;;;;;;;11.25;7.00;;;;;20.78;37.66;98863.09;5037557;28;45309;-73
2023/03/08 09:39:42;;;;;;;;;12.75;9.00;;;;;20.79;37.31;98867.34;5039990;28;46098;-73
2023/03/08 09:42:19;;;;;;;;;8.50;8.50;;;;;20.78;37.68;98871.03;5037603;28;45389;-73
2023/03/08 09:44:54;;;;;;;;;7.00;6.25;;;;;20.78;37.94;98865.72;5036252;28;45464;-73
2023/03/08 09:47:31;;;;;;;;;6.00;5.25;;;;;20.70;37.74;98856.25;5037712;28;45406;-73
2023/03/08 09:50:12;;;;;;;;;13.00;9.75;;;;;20.78;37.63;98871.84;5037173;28;46207;-73
2023/03/08 09:52:40;;;;;;;;;9.25;7.25;;;;;20.77;37.70;98870.19;5016524;28;45497;-73
2023/03/08 09:55:17;;;;;;;;;9.75;7.00;;;;;20.73;37.45;98882.25;5037460;28;45384;-73
2023/03/08 09:57:55;;;;;;;;;6.50;5.00;;;;;20.78;37.77;98890.34;5037189;28;45399;-73
2023/03/08 10:00:40;;;;;;;;;10.00;9.00;;;;;20.77;37.69;98886.06;5037366;28;46163;-71
2023/03/08 10:03:52;;;;;;;;;6.75;6.75;;;;;20.78;37.89;98898.25;5037234;28;45714;-73
2023/03/08 10:06:30;;;;;;;;;9.75;7.00;;;;;20.78;37.99;98900.09;5036981;28;45309;-73
2023/03/08 10:09:15;;;;;;;;;11.25;8.00;;;;;20.76;37.79;98891.56;5037374;28;45462;-73
2023/03/08 10:12:01;;;;;;;;;6.25;6.00;;;;;20.78;37.73;98900.09;5037206;28;47004;-73
2023/03/08 10:14:33;;;;;;;;;8.50;6.25;;;;;20.79;37.88;98899.06;5032242;28;45401;-73
2023/03/08 10:17:04;;;;;;;;;7.25;6.50;;;;;20.80;37.77;98912.06;5034045;28;45289;-73
2023/03/08 10:19:41;;;;;;;;;7.75;7.25;;;;;20.80;37.68;98913.88;5037012;28;45618;-72
2023/03/08 10:22:15;;;;;;;;;13.00;7.25;;;;;20.81;37.56;98907.59;5035434;28;47127;-73
2023/03/08 10:24:52;;;;;;;;;6.75;6.00;;;;;20.80;38.01;98896.19;5026065;28;45294;-73
2023/03/08 10:27:22;;;;;;;;;7.00;7.00;;;;;20.82;37.63;98895.97;5038647;28;45411;-73
2023/03/08 10:29:52;;;;;;;;;8.00;5.00;;;;;20.84;37.61;98909.78;5037221;28;45579;-73
2023/03/08 10:32:18;;;;;;;;;5.00;3.00;;;;;20.83;38.01;98908.97;5037516;28;46341;-73
2023/03/08 10:34:43;;;;;;;;;8.00;6.00;;;;;20.83;37.67;98910.81;5036181;28;45252;-72
2023/03/08 10:37:09;;;;;;;;;7.50;6.00;;;;;20.82;37.40;98904.72;5041679;28;45201;-72
2023/03/08 10:39:36;;;;;;;;;7.00;6.25;;;;;20.82;37.60;98910.00;5037083;28;45469;-73
2023/03/08 10:42:13;;;;;;;;;8.25;7.00;;;;;20.83;37.78;98913.44;5036434;28;46006;-73
2023/03/08 10:44:43;;;;;;;;;9.25;6.00;;;;;20.82;37.39;98917.94;5036604;28;45424;-72
2023/03/08 10:47:29;;;;;;;;;6.00;4.25;;;;;20.82;37.92;98912.63;5025065;28;45446;-72
2023/03/08 10:50:19;;;;;;;;;10.25;5.50;;;;;20.82;37.61;98914.47;5036568;28;45380;-72
2023/03/08 10:52:46;;;;;;;;;7.00;5.00;;;;;20.82;37.76;98912.63;5036280;28;45355;-73
2023/03/08 10:55:25;;;;;;;;;6.25;5.00;;;;;20.81;37.89;98916.31;5036122;28;45426;-72
2023/03/08 10:58:01;;;;;;;;;6.25;5.25;;;;;20.80;37.99;98917.34;5036422;28;45555;-72
2023/03/08 11:00:39;;;;;;;;;6.50;5.75;;;;;20.81;37.83;98926.91;5036325;28;45444;-72
2023/03/08 11:03:19;;;;;;;;;7.50;5.00;;;;;20.81;37.86;98918.16;5018002;28;47403;-72
2023/03/08 11:05:50;;;;;;;;;5.25;4.25;;;;;20.80;37.77;98914.69;5036333;28;45387;-73
2023/03/08 11:08:20;;;;;;;;;5.00;5.00;;;;;20.80;37.90;98919.16;5036154;28;45240;-73
2023/03/08 11:10:45;;;;;;;;;8.00;6.00;;;;;20.80;37.99;98917.34;5044050;28;45613;-72
2023/03/08 11:13:27;;;;;;;;;5.50;5.00;;;;;20.80;38.07;98916.53;5035990;28;46369;-72
2023/03/08 11:16:03;;;;;;;;;6.75;6.50;;;;;20.77;38.17;98915.13;5030760;28;45490;-72
2023/03/08 11:18:56;;;;;;;;;7.25;6.25;;;;;20.79;37.73;98920.22;5036282;28;45352;-72
2023/03/08 11:21:39;;;;;;;;;12.50;6.00;;;;;20.78;38.04;98922.03;5035989;28;45287;-72
2023/03/08 11:24:23;;;;;;;;;6.75;5.50;;;;;20.79;37.93;98915.72;5035144;28;47210;-72
2023/03/08 11:27:25;;;;;;;;;6.00;6.00;;;;;20.79;38.03;98914.94;5035942;28;45548;-73
2023/03/08 11:30:02;;;;;;;;;3.25;2.25;;;;;20.79;38.07;98920.22;5018433;28;45629;-72
2023/03/08 11:32:46;;;;;;;;;9.25;4.50;;;;;20.78;37.86;98926.50;5035037;28;45325;-73
2023/03/08 11:35:44;;;;;;;;;5.75;5.75;;;;;20.79;38.17;98925.50;5021675;28;46556;-72